createdAt,value
2017-07-17T00:00:42.171Z,19.93
2017-07-17T00:03:08.511Z,16.93
2017-07-17T00:05:34.903Z,25.47
2017-07-17T00:08:01.259Z,20.33
2017-07-17T00:10:27.612Z,15.67
2017-07-17T00:12:53.973Z,21.30
2017-07-17T00:15:21.815Z,17.30
2017-07-17T00:17:48.878Z,17.30
2017-07-17T00:20:15.248Z,20.07
2017-07-17T00:22:41.574Z,21.77
2017-07-17T00:25:08.649Z,20.83
2017-07-17T00:27:35.000Z,20.37
2017-07-17T00:30:01.433Z,15.73
2017-07-17T00:32:31.015Z,21.80
2017-07-17T00:34:57.372Z,20.80
2017-07-17T00:37:23.732Z,18.40
2017-07-17T00:39:50.112Z,18.63
2017-07-17T00:42:16.521Z,22.57
2017-07-17T00:44:42.841Z,17.30
2017-07-17T00:47:09.193Z,17.10
2017-07-17T00:49:35.547Z,18.87
2017-07-17T00:52:08.132Z,21.07
2017-07-17T00:54:34.493Z,18.67
2017-07-17T00:57:00.857Z,16.40
2017-07-17T00:59:27.216Z,19.40
2017-07-17T01:01:53.543Z,19.10
2017-07-17T01:04:19.881Z,18.27
2017-07-17T01:06:46.225Z,18.57
2017-07-17T01:09:13.294Z,19.50
2017-07-17T01:11:39.645Z,20.47
2017-07-17T01:14:05.967Z,20.80
2017-07-17T01:16:32.314Z,21.70
2017-07-17T01:18:58.650Z,21.33
2017-07-17T01:21:24.990Z,16.53
2017-07-17T01:23:51.325Z,20.57
2017-07-17T01:26:17.656Z,21.00
2017-07-17T01:28:44.001Z,19.83
2017-07-17T01:31:13.252Z,18.30
2017-07-17T01:33:39.588Z,18.67
2017-07-17T01:36:06.657Z,21.53
2017-07-17T01:38:33.000Z,19.37
2017-07-17T01:40:59.335Z,16.97
2017-07-17T01:43:25.709Z,18.30
2017-07-17T01:45:52.068Z,19.73
2017-07-17T01:48:19.215Z,22.53
2017-07-17T01:50:48.429Z,18.70
2017-07-17T01:53:14.786Z,18.80
2017-07-17T01:55:41.930Z,19.40
2017-07-17T01:58:08.321Z,23.80
2017-07-17T02:00:34.674Z,18.90
2017-07-17T02:03:01.015Z,21.50
2017-07-17T02:05:27.359Z,18.50
2017-07-17T02:07:57.801Z,20.37
2017-07-17T02:10:24.148Z,21.10
2017-07-17T02:12:50.507Z,22.00
2017-07-17T02:15:16.837Z,22.60
2017-07-17T02:17:43.217Z,23.63
2017-07-17T02:20:09.628Z,21.10
2017-07-17T02:22:35.995Z,19.00
2017-07-17T02:25:07.409Z,20.33
2017-07-17T02:27:33.763Z,19.00
2017-07-17T02:30:00.160Z,23.13
2017-07-17T02:32:27.280Z,22.07
2017-07-17T02:34:53.625Z,23.70
2017-07-17T02:37:19.949Z,22.40
2017-07-17T02:39:46.314Z,19.17
2017-07-17T02:42:12.649Z,22.27
2017-07-17T02:44:43.093Z,22.77
2017-07-17T02:47:09.433Z,24.53
2017-07-17T02:49:35.789Z,19.20
2017-07-17T02:52:02.109Z,22.80
2017-07-17T02:54:29.221Z,21.37
2017-07-17T02:56:55.644Z,16.83
2017-07-17T02:59:22.950Z,17.73
2017-07-17T03:01:52.773Z,20.40
2017-07-17T03:04:19.205Z,18.80
2017-07-17T03:06:45.572Z,23.63
2017-07-17T03:09:11.922Z,20.70
2017-07-17T03:11:38.265Z,20.70
2017-07-17T03:14:04.629Z,23.60
2017-07-17T03:16:30.990Z,23.63
2017-07-17T03:19:03.926Z,17.40
2017-07-17T03:21:30.295Z,18.70
2017-07-17T03:24:08.828Z,20.40
2017-07-17T03:26:35.424Z,19.07
2017-07-17T03:29:07.700Z,19.03
2017-07-17T03:31:35.047Z,24.97
2017-07-17T03:34:01.576Z,19.40
2017-07-17T03:36:28.125Z,22.03
2017-07-17T03:38:55.434Z,19.93
2017-07-17T03:41:22.329Z,18.67
2017-07-17T03:43:48.944Z,17.30
2017-07-17T03:46:15.484Z,13.43
2017-07-17T03:48:47.497Z,15.30
2017-07-17T03:51:14.051Z,13.70
2017-07-17T03:53:40.651Z,12.93
2017-07-17T03:56:07.186Z,14.27
2017-07-17T03:58:33.740Z,17.43
2017-07-17T04:01:01.046Z,10.50
2017-07-17T04:03:31.352Z,9.40
2017-07-17T04:05:57.942Z,8.77
2017-07-17T04:08:25.211Z,8.20
2017-07-17T04:10:51.831Z,7.50
2017-07-17T04:13:18.391Z,6.53
2017-07-17T04:15:45.720Z,6.80
2017-07-17T04:18:14.258Z,6.50
2017-07-17T04:20:40.913Z,5.97
2017-07-17T04:23:07.469Z,6.80
2017-07-17T04:25:34.088Z,6.50
2017-07-17T04:28:00.668Z,6.47
2017-07-17T04:30:27.155Z,5.90
2017-07-17T04:32:57.329Z,7.50
2017-07-17T04:35:23.891Z,5.80
2017-07-17T04:37:50.486Z,5.30
2017-07-17T04:40:17.063Z,4.20
2017-07-17T04:42:43.647Z,4.87
2017-07-17T04:45:10.210Z,3.70
2017-07-17T04:47:40.377Z,3.83
2017-07-17T04:50:07.738Z,6.40
2017-07-17T04:52:34.331Z,3.33
2017-07-17T04:55:00.954Z,2.90
2017-07-17T04:57:27.531Z,3.73
2017-07-17T04:59:54.127Z,2.53
2017-07-17T05:02:23.961Z,2.30
2017-07-17T05:04:50.521Z,1.97
2017-07-17T05:07:17.144Z,3.30
2017-07-17T05:09:43.709Z,2.47
2017-07-17T05:12:10.324Z,2.63
2017-07-17T05:14:36.909Z,2.50
2017-07-17T05:17:03.460Z,3.27
2017-07-17T05:19:33.507Z,3.30
2017-07-17T05:22:00.079Z,3.30
2017-07-17T05:24:26.661Z,4.40
2017-07-17T05:26:53.976Z,5.23
2017-07-17T05:29:20.545Z,6.17
2017-07-17T05:31:47.154Z,5.70
2017-07-17T05:34:13.749Z,7.47
2017-07-17T05:36:40.289Z,7.20
2017-07-17T05:39:09.117Z,9.73
2017-07-17T05:41:35.717Z,9.00
2017-07-17T05:44:02.306Z,9.10
2017-07-17T05:46:28.890Z,10.27
2017-07-17T05:48:55.476Z,9.70
2017-07-17T05:51:22.140Z,11.60
2017-07-17T05:53:49.585Z,9.07
2017-07-17T05:56:16.199Z,11.00
2017-07-17T05:58:42.777Z,9.90
2017-07-17T06:01:10.146Z,13.50
2017-07-17T06:03:36.694Z,12.13
2017-07-17T06:06:03.307Z,11.40
2017-07-17T06:08:30.602Z,12.20
2017-07-17T06:10:57.124Z,12.90
2017-07-17T06:13:23.737Z,16.13
2017-07-17T06:15:50.281Z,17.50
2017-07-17T06:18:16.853Z,11.97
2017-07-17T06:20:43.421Z,20.00
2017-07-17T06:23:09.961Z,15.97
2017-07-17T06:25:37.273Z,14.40
2017-07-17T06:28:03.846Z,16.33
2017-07-17T06:30:30.545Z,18.13
2017-07-17T06:32:57.113Z,16.93
2017-07-17T06:35:23.693Z,17.00
2017-07-17T06:37:50.345Z,17.07
2017-07-17T06:40:16.880Z,14.70
2017-07-17T06:42:43.420Z,16.10
2017-07-17T06:45:09.990Z,15.23
2017-07-17T06:47:41.412Z,15.63
2017-07-17T06:50:07.992Z,18.57
2017-07-17T06:52:34.629Z,15.60
2017-07-17T06:55:01.961Z,19.57
2017-07-17T06:57:28.500Z,21.80
2017-07-17T06:59:55.077Z,24.97
2017-07-17T07:02:21.778Z,22.17
2017-07-17T07:04:49.994Z,24.17
2017-07-17T07:07:16.551Z,22.50
2017-07-17T07:09:43.110Z,21.07
2017-07-17T07:12:09.657Z,20.50
2017-07-17T07:14:36.995Z,21.03
2017-07-17T07:17:03.577Z,25.27
2017-07-17T07:19:30.128Z,24.00
2017-07-17T07:21:56.759Z,18.60
2017-07-17T07:24:25.841Z,21.67
2017-07-17T07:26:52.467Z,21.27
2017-07-17T07:29:19.758Z,19.93
2017-07-17T07:31:46.304Z,21.33
2017-07-17T07:34:12.900Z,22.73
2017-07-17T07:36:39.461Z,17.87
2017-07-17T07:39:06.118Z,14.70
2017-07-17T07:41:32.691Z,17.10
2017-07-17T07:44:00.929Z,21.20
2017-07-17T07:46:28.185Z,15.03
2017-07-17T07:48:54.761Z,14.53
2017-07-17T07:51:21.388Z,21.30
2017-07-17T07:53:47.957Z,15.20
2017-07-17T07:56:14.521Z,14.27
2017-07-17T07:58:41.137Z,15.67
2017-07-17T08:01:07.722Z,14.53
2017-07-17T08:03:37.858Z,12.60
2017-07-17T08:06:04.401Z,14.20
2017-07-17T08:08:31.006Z,12.73
2017-07-17T08:10:57.607Z,11.70
2017-07-17T08:13:24.884Z,11.10
2017-07-17T08:15:51.478Z,11.13
2017-07-17T08:18:22.581Z,9.83
2017-07-17T08:20:49.181Z,10.50
2017-07-17T08:23:15.792Z,9.47
2017-07-17T08:25:42.401Z,11.60
2017-07-17T08:28:09.001Z,10.70
2017-07-17T08:30:35.579Z,11.77
2017-07-17T08:33:02.209Z,9.70
2017-07-17T08:35:28.750Z,12.87
2017-07-17T08:37:58.869Z,8.13
2017-07-17T08:40:25.465Z,9.10
2017-07-17T08:42:52.065Z,10.23
2017-07-17T08:45:18.685Z,13.53
2017-07-17T08:47:45.282Z,9.67
2017-07-17T08:50:11.850Z,12.30
2017-07-17T08:52:38.484Z,11.63
2017-07-17T08:55:05.068Z,11.13
2017-07-17T08:57:33.820Z,11.33
2017-07-17T09:00:00.373Z,12.87
2017-07-17T09:02:27.729Z,18.27
2017-07-17T09:04:54.265Z,10.90
2017-07-17T09:07:20.910Z,12.87
2017-07-17T09:09:47.476Z,11.30
2017-07-17T09:12:14.172Z,13.00
2017-07-17T09:14:40.733Z,13.00
2017-07-17T09:17:09.423Z,10.60
2017-07-17T09:19:35.869Z,11.83
2017-07-17T09:22:02.257Z,12.53
2017-07-17T09:24:28.597Z,12.30
2017-07-17T09:26:54.916Z,11.23
2017-07-17T09:29:21.298Z,13.80
2017-07-17T09:31:47.643Z,10.70
2017-07-17T09:34:14.198Z,12.80
2017-07-17T09:36:46.766Z,18.83
2017-07-17T09:39:13.146Z,13.53
2017-07-17T09:41:39.462Z,17.97
2017-07-17T09:44:05.772Z,15.13
2017-07-17T09:46:32.123Z,17.13
2017-07-17T09:48:58.440Z,19.70
2017-07-17T09:51:24.797Z,19.97
2017-07-17T09:53:51.878Z,14.07
2017-07-17T09:56:20.926Z,16.50
2017-07-17T09:58:47.242Z,17.00
2017-07-17T10:01:13.586Z,15.30
2017-07-17T10:03:39.933Z,12.87
2017-07-17T10:06:06.275Z,13.20
2017-07-17T10:08:32.602Z,12.07
2017-07-17T10:10:58.928Z,14.47
2017-07-17T10:13:25.329Z,14.03
2017-07-17T10:15:51.661Z,10.80
2017-07-17T10:18:17.983Z,10.43
2017-07-17T10:20:44.394Z,10.30
2017-07-17T10:23:10.999Z,14.90
2017-07-17T10:25:37.332Z,12.23
2017-07-17T10:28:03.651Z,11.50
2017-07-17T10:30:30.006Z,12.13
2017-07-17T10:32:57.054Z,9.43
2017-07-17T10:35:24.142Z,12.30
2017-07-17T10:37:50.468Z,9.80
2017-07-17T10:40:18.738Z,14.80
2017-07-17T10:42:45.074Z,11.20
2017-07-17T10:45:12.190Z,8.70
2017-07-17T10:47:38.516Z,12.33
2017-07-17T10:50:04.873Z,8.63
2017-07-17T10:52:31.286Z,8.93
2017-07-17T10:54:57.615Z,11.17
2017-07-17T10:57:23.941Z,7.60
2017-07-17T10:59:54.278Z,8.80
2017-07-17T11:02:20.609Z,9.60
2017-07-17T11:04:47.023Z,7.87
2017-07-17T11:07:13.378Z,7.57
2017-07-17T11:09:39.730Z,11.80
2017-07-17T11:12:06.080Z,6.53
2017-07-17T11:14:32.414Z,4.90
2017-07-17T11:16:59.786Z,5.20
2017-07-17T11:19:26.158Z,4.00
2017-07-17T11:21:53.321Z,4.43
2017-07-17T11:24:19.680Z,4.60
2017-07-17T11:26:46.076Z,4.73
2017-07-17T11:29:12.463Z,5.13
2017-07-17T11:31:38.815Z,4.07
2017-07-17T11:34:05.153Z,7.90
2017-07-17T11:36:31.544Z,4.67
2017-07-17T11:38:57.869Z,8.57
2017-07-17T11:41:24.254Z,3.10
2017-07-17T11:43:50.632Z,3.93
2017-07-17T11:56:27.108Z,3.20
2017-07-17T11:58:54.247Z,5.53
2017-07-17T12:01:20.589Z,5.63
2017-07-17T12:03:46.930Z,3.83
2017-07-17T12:06:13.272Z,4.90
2017-07-17T12:08:40.325Z,7.40
2017-07-17T12:11:06.682Z,5.00
2017-07-17T12:13:32.983Z,3.93
2017-07-17T12:15:59.363Z,4.63
2017-07-17T12:18:26.412Z,3.77
2017-07-17T12:20:52.716Z,3.23
2017-07-17T12:23:19.038Z,3.53
2017-07-17T12:25:46.102Z,2.83
2017-07-17T12:28:12.425Z,2.80
2017-07-17T12:30:38.732Z,4.10
2017-07-17T12:33:05.897Z,4.00
2017-07-17T12:35:32.234Z,2.47
2017-07-17T12:37:58.572Z,3.33
2017-07-17T12:40:24.932Z,7.60
2017-07-17T12:42:51.260Z,3.10
2017-07-17T12:45:17.582Z,2.77
2017-07-17T12:47:44.154Z,3.17
2017-07-17T12:50:10.750Z,2.57
2017-07-17T12:52:37.294Z,3.70
2017-07-17T12:55:03.880Z,2.23
2017-07-17T12:57:30.413Z,2.00
2017-07-17T12:59:56.971Z,4.33
2017-07-17T13:02:24.294Z,1.97
2017-07-17T13:04:56.902Z,2.00
2017-07-17T13:07:23.255Z,2.17
2017-07-17T13:09:49.560Z,3.20
2017-07-17T13:12:16.135Z,2.93
2017-07-17T13:14:42.693Z,2.07
2017-07-17T13:17:09.223Z,2.30
2017-07-17T13:19:37.099Z,5.27
2017-07-17T13:22:03.632Z,3.57
2017-07-17T13:24:30.217Z,2.57
2017-07-17T13:26:56.768Z,2.80
2017-07-17T13:29:23.349Z,5.63
2017-07-17T13:31:49.913Z,3.53
2017-07-17T13:34:16.531Z,2.00
2017-07-17T13:36:43.097Z,2.27
2017-07-17T13:39:09.654Z,2.00
2017-07-17T13:41:36.206Z,2.40
2017-07-17T13:44:02.782Z,2.80
2017-07-17T13:46:29.338Z,2.57
2017-07-17T13:48:55.863Z,2.83
2017-07-17T13:51:25.157Z,3.07
2017-07-17T13:53:51.501Z,4.77
2017-07-17T13:56:17.822Z,2.70
2017-07-17T13:58:44.150Z,4.03
2017-07-17T14:01:11.221Z,2.40
2017-07-17T14:03:37.554Z,2.70
2017-07-17T14:06:08.741Z,3.77
2017-07-17T14:08:35.249Z,2.67
2017-07-17T14:11:01.626Z,3.13
2017-07-17T14:13:27.956Z,2.53
2017-07-17T14:15:54.277Z,6.53
2017-07-17T14:18:20.606Z,1.77
2017-07-17T14:20:46.983Z,1.73
2017-07-17T14:23:14.144Z,1.60
2017-07-17T14:25:40.493Z,5.83
2017-07-17T14:28:06.893Z,5.23
2017-07-17T14:30:33.216Z,2.03
2017-07-17T14:32:59.524Z,4.33
2017-07-17T14:35:25.868Z,2.20
2017-07-17T14:37:52.198Z,2.10
2017-07-17T14:40:18.570Z,2.67
2017-07-17T14:42:44.925Z,1.70
2017-07-17T14:45:11.276Z,3.67
2017-07-17T14:47:37.590Z,2.97
2017-07-17T14:50:03.944Z,2.17
2017-07-17T14:52:30.280Z,2.10
2017-07-17T14:54:56.601Z,1.63
2017-07-17T14:57:23.068Z,3.00
2017-07-17T14:59:51.843Z,8.00
2017-07-17T15:02:18.168Z,2.23
2017-07-17T15:04:44.497Z,5.13
2017-07-17T15:07:10.837Z,1.93
2017-07-17T15:09:37.397Z,1.60
2017-07-17T15:12:03.817Z,1.63
2017-07-17T15:14:30.910Z,3.20
2017-07-17T15:17:01.248Z,4.73
2017-07-17T15:19:27.577Z,4.20
2017-07-17T15:21:53.925Z,1.70
2017-07-17T15:24:20.237Z,7.90
2017-07-17T15:26:46.551Z,2.70
2017-07-17T15:29:13.009Z,3.20
2017-07-17T15:31:39.322Z,3.70
2017-07-17T15:34:10.513Z,2.80
2017-07-17T15:36:36.825Z,2.13
2017-07-17T15:39:03.241Z,3.67
2017-07-17T15:41:29.584Z,2.30
2017-07-17T15:43:55.905Z,2.10
2017-07-17T15:46:22.284Z,4.40
2017-07-17T15:48:48.671Z,3.00
2017-07-17T15:51:15.071Z,3.40
2017-07-17T15:53:41.420Z,2.13
2017-07-17T15:56:07.752Z,2.93
2017-07-17T15:58:34.092Z,1.30
2017-07-17T16:01:00.437Z,2.67
2017-07-17T16:03:26.765Z,2.60
2017-07-17T16:05:53.887Z,2.70
2017-07-17T16:08:20.278Z,2.33
2017-07-17T16:10:46.644Z,2.57
2017-07-17T16:13:13.016Z,3.47
2017-07-17T16:15:44.438Z,3.03
2017-07-17T16:18:10.786Z,1.73
2017-07-17T16:20:37.137Z,1.60
2017-07-17T16:23:03.460Z,1.30
2017-07-17T16:25:29.788Z,1.73
2017-07-17T16:27:56.863Z,1.50
2017-07-17T16:30:24.077Z,2.83
2017-07-17T16:32:50.420Z,2.43
2017-07-17T16:35:16.753Z,2.57
2017-07-17T16:37:43.946Z,5.90
2017-07-17T16:40:10.313Z,1.57
2017-07-17T16:42:36.676Z,3.50
2017-07-17T16:45:05.069Z,1.67
2017-07-17T16:47:32.177Z,1.77
2017-07-17T16:49:58.522Z,2.47
2017-07-17T16:52:25.585Z,1.90
2017-07-17T16:54:51.927Z,1.77
2017-07-17T16:57:18.245Z,1.73
2017-07-17T16:59:51.492Z,1.70
2017-07-17T17:02:17.833Z,1.57
2017-07-17T17:04:44.221Z,2.03
2017-07-17T17:07:10.569Z,1.57
2017-07-17T17:09:36.925Z,5.90
2017-07-17T17:12:03.296Z,2.50
2017-07-17T17:14:30.909Z,3.17
2017-07-17T17:16:57.306Z,2.40
2017-07-17T17:19:23.704Z,1.93
2017-07-17T17:21:50.034Z,1.77
2017-07-17T17:24:16.350Z,1.30
2017-07-17T17:26:43.444Z,1.53
2017-07-17T17:29:10.536Z,1.73
2017-07-17T17:31:36.910Z,2.20
2017-07-17T17:34:03.245Z,2.17
2017-07-17T17:36:29.649Z,2.60
2017-07-17T17:38:55.980Z,2.60
2017-07-17T17:41:22.355Z,1.63
2017-07-17T17:43:48.878Z,1.83
2017-07-17T17:46:15.226Z,1.30
2017-07-17T17:48:41.546Z,1.57
2017-07-17T17:51:14.380Z,1.97
2017-07-17T17:53:41.433Z,1.90
2017-07-17T17:56:08.508Z,2.40
2017-07-17T17:58:34.948Z,3.03
2017-07-17T18:01:01.298Z,3.10
2017-07-17T18:03:27.631Z,1.83
2017-07-17T18:05:53.997Z,1.00
2017-07-17T18:08:21.908Z,2.50
2017-07-17T18:10:48.236Z,1.20
2017-07-17T18:13:14.564Z,3.27
2017-07-17T18:15:40.961Z,3.20
2017-07-17T18:18:07.351Z,3.40
2017-07-17T18:20:34.541Z,1.27
2017-07-17T18:23:07.261Z,2.33
2017-07-17T18:25:33.664Z,1.40
2017-07-17T18:28:00.018Z,1.90
2017-07-17T18:30:26.365Z,1.83
2017-07-17T18:32:52.696Z,5.60
2017-07-17T18:35:19.000Z,3.10
2017-07-17T18:37:45.343Z,4.07
2017-07-17T18:40:14.941Z,2.87
2017-07-17T18:42:42.050Z,2.00
2017-07-17T18:45:08.354Z,2.27
2017-07-17T18:47:34.896Z,2.70
2017-07-17T18:50:01.200Z,2.50
2017-07-17T18:52:27.552Z,2.60
2017-07-17T18:54:53.861Z,1.43
2017-07-17T18:57:20.175Z,2.90
2017-07-17T18:59:47.233Z,1.50
2017-07-17T19:02:13.595Z,2.17
2017-07-17T19:04:39.910Z,2.60
2017-07-17T19:07:06.246Z,1.43
2017-07-17T19:09:33.352Z,2.00
2017-07-17T19:11:59.659Z,2.27
2017-07-17T19:14:25.973Z,7.17
2017-07-17T19:16:52.293Z,2.93
2017-07-17T19:19:22.404Z,3.50
2017-07-17T19:21:48.822Z,3.10
2017-07-17T19:24:15.140Z,5.43
2017-07-17T19:26:41.567Z,2.57
2017-07-17T19:29:07.893Z,2.80
2017-07-17T19:31:34.181Z,4.63
2017-07-17T19:34:00.494Z,6.47
2017-07-17T19:36:26.803Z,3.47
2017-07-17T19:38:57.893Z,2.90
2017-07-17T19:41:24.311Z,2.20
2017-07-17T19:43:50.687Z,3.00
2017-07-17T19:46:17.005Z,2.27
2017-07-17T19:48:43.375Z,4.50
2017-07-17T19:51:09.709Z,2.10
2017-07-17T19:53:36.059Z,2.20
2017-07-17T19:56:07.764Z,4.73
2017-07-17T19:58:34.086Z,3.70
2017-07-17T20:01:00.410Z,4.90
2017-07-17T20:03:26.745Z,2.83
2017-07-17T20:05:53.141Z,4.20
2017-07-17T20:08:19.517Z,2.17
2017-07-17T20:10:52.337Z,2.93
2017-07-17T20:13:19.480Z,3.30
2017-07-17T20:15:45.816Z,4.43
2017-07-17T20:18:12.150Z,4.10
2017-07-17T20:20:38.489Z,4.53
2017-07-17T20:23:04.807Z,3.13
2017-07-17T20:25:34.637Z,6.10
2017-07-17T20:28:00.997Z,4.47
2017-07-17T20:30:27.343Z,5.67
2017-07-17T20:32:53.674Z,8.10
2017-07-17T20:35:20.786Z,5.00
2017-07-17T20:37:47.124Z,3.53
2017-07-17T20:40:18.016Z,6.10
2017-07-17T20:42:44.352Z,3.10
2017-07-17T20:45:10.688Z,5.00
2017-07-17T20:47:37.010Z,3.10
2017-07-17T20:50:03.309Z,3.57
2017-07-17T20:52:29.686Z,10.70
2017-07-17T20:54:56.016Z,4.23
2017-07-17T20:57:22.372Z,6.30
2017-07-17T20:59:51.152Z,3.30
2017-07-17T21:02:17.521Z,3.90
2017-07-17T21:04:43.846Z,4.00
2017-07-17T21:07:10.977Z,4.93
2017-07-17T21:09:38.166Z,6.07
2017-07-17T21:12:04.494Z,5.90
2017-07-17T21:14:30.820Z,4.33
2017-07-17T21:17:00.280Z,3.63
2017-07-17T21:19:26.606Z,3.73
2017-07-17T21:21:52.915Z,5.23
2017-07-17T21:24:19.248Z,4.67
2017-07-17T21:26:45.593Z,2.40
2017-07-17T21:29:11.923Z,3.70
2017-07-17T21:31:43.239Z,3.17
2017-07-17T21:34:09.583Z,6.17
2017-07-17T21:36:35.949Z,9.67
2017-07-17T21:39:02.377Z,4.20
2017-07-17T21:41:28.732Z,2.90
2017-07-17T21:43:55.799Z,7.20
2017-07-17T21:46:22.181Z,4.00
2017-07-17T21:48:49.271Z,7.10
2017-07-17T21:51:19.577Z,3.43
2017-07-17T21:53:46.654Z,3.30
2017-07-17T21:56:12.977Z,3.67
2017-07-17T21:58:39.352Z,3.90
2017-07-17T22:01:05.860Z,6.00
2017-07-17T22:03:32.200Z,3.20
2017-07-17T22:05:58.607Z,3.80
2017-07-17T22:08:24.970Z,3.17
2017-07-17T22:10:52.016Z,4.07
2017-07-17T22:13:18.400Z,4.33
2017-07-17T22:15:44.720Z,3.83
2017-07-17T22:18:11.069Z,2.80
2017-07-17T22:20:37.406Z,5.93
2017-07-17T22:23:03.792Z,6.03
2017-07-17T22:25:30.154Z,3.10
2017-07-17T22:27:56.483Z,2.90
2017-07-17T22:30:22.880Z,4.03
2017-07-17T22:32:55.600Z,4.30
2017-07-17T22:35:22.236Z,6.23
2017-07-17T22:37:48.868Z,7.00
2017-07-17T22:40:15.413Z,5.07
2017-07-17T22:42:42.019Z,3.03
2017-07-17T22:45:08.693Z,5.13
2017-07-17T22:47:35.262Z,4.80
2017-07-17T22:50:02.523Z,4.50
2017-07-17T22:52:29.957Z,4.53
2017-07-17T22:54:57.285Z,4.27
2017-07-17T22:57:23.881Z,3.77
2017-07-17T22:59:50.400Z,3.67
2017-07-17T23:02:16.954Z,3.70
2017-07-17T23:04:44.290Z,7.20
2017-07-17T23:07:12.494Z,3.60
2017-07-17T23:09:39.110Z,7.63
2017-07-17T23:12:05.707Z,3.60
2017-07-17T23:14:32.981Z,4.50
2017-07-17T23:16:59.554Z,5.03
2017-07-17T23:19:26.073Z,4.30
2017-07-17T23:24:24.349Z,6.50
2017-07-17T23:26:50.925Z,6.10
2017-07-17T23:29:17.474Z,5.40
2017-07-17T23:31:44.009Z,4.87
2017-07-17T23:34:11.338Z,13.53
2017-07-17T23:36:41.872Z,7.37
2017-07-17T23:39:08.519Z,5.13
2017-07-17T23:41:35.113Z,3.83
2017-07-17T23:44:01.669Z,4.23
2017-07-17T23:46:28.255Z,3.73
2017-07-17T23:48:54.813Z,5.67
2017-07-17T23:51:21.399Z,3.93
2017-07-17T23:53:48.015Z,9.40
2017-07-17T23:56:14.557Z,4.90
2017-07-17T23:58:41.129Z,6.97
